UAL2227 KDEN-KSLC
Flight info
| Callsign | UAL2227 |
|---|---|
| Flight time | 1h 0m |
| Altitude | 36000 |
| Route | ZIMMR3 CHNGY EKR RACER JAZZZ1 |
| Aircraft | B738/M-SDE2E3FGHIRWXY/LB1 |
Departure
| Time | 2026-05-05 23:24 |
|---|---|
| Airport | Denver International Airport (KDEN) |
Arrival
| Time | 2026-05-06 00:24 |
|---|---|
| Airport | Salt Lake City International Airport (KSLC) |
| Time | Latitude | Longitude | Altitude | Speed | Heading |
|---|---|---|---|---|---|
| 2026-05-05 23:02 | 39.85341 | -104.67882 | 5386 ft | 0 kts | 0° |
| 2026-05-05 23:17 | 39.85334 | -104.67882 | 5383 ft | 2 kts | 0° |
| 2026-05-05 23:17 | 39.85318 | -104.67882 | 5384 ft | 2 kts | 0° |
| 2026-05-05 23:17 | 39.85302 | -104.67882 | 5385 ft | 2 kts | 0° |
| 2026-05-05 23:18 | 39.85285 | -104.67882 | 5384 ft | 2 kts | 344° |
| 2026-05-05 23:18 | 39.85272 | -104.67872 | 5372 ft | 1 kts | 280° |
| 2026-05-05 23:18 | 39.85271 | -104.67862 | 5374 ft | 0 kts | 266° |
| 2026-05-05 23:19 | 39.85271 | -104.67882 | 5366 ft | 7 kts | 271° |
| 2026-05-05 23:19 | 39.85278 | -104.67998 | 5386 ft | 17 kts | 273° |
| 2026-05-05 23:20 | 39.85285 | -104.68151 | 5385 ft | 17 kts | 272° |
| 2026-05-05 23:20 | 39.85245 | -104.68225 | 5387 ft | 12 kts | 227° |
| 2026-05-05 23:20 | 39.85210 | -104.68329 | 5386 ft | 15 kts | 257° |
| 2026-05-05 23:20 | 39.85206 | -104.68495 | 5371 ft | 19 kts | 270° |
| 2026-05-05 23:21 | 39.85204 | -104.68665 | 5365 ft | 19 kts | 268° |
| 2026-05-05 23:21 | 39.85199 | -104.68830 | 5358 ft | 18 kts | 268° |
| 2026-05-05 23:21 | 39.85197 | -104.68988 | 5352 ft | 17 kts | 270° |
| 2026-05-05 23:21 | 39.85197 | -104.69142 | 5349 ft | 17 kts | 270° |
| 2026-05-05 23:22 | 39.85198 | -104.69290 | 5341 ft | 16 kts | 271° |
| 2026-05-05 23:22 | 39.85202 | -104.69431 | 5339 ft | 15 kts | 272° |
| 2026-05-05 23:22 | 39.85204 | -104.69539 | 5333 ft | 10 kts | 270° |
| 2026-05-05 23:22 | 39.85212 | -104.69627 | 5335 ft | 10 kts | 292° |
| 2026-05-05 23:23 | 39.85264 | -104.69659 | 5335 ft | 8 kts | 1° |
| 2026-05-05 23:23 | 39.85524 | -104.69656 | 5339 ft | 75 kts | 1° |
| 2026-05-05 23:23 | 39.86278 | -104.69646 | 5337 ft | 140 kts | 1° |
| 2026-05-05 23:23 | 39.87366 | -104.69625 | 5703 ft | 171 kts | 2° |
| 2026-05-05 23:24 | 39.88677 | -104.69604 | 6336 ft | 195 kts | 3° |
| 2026-05-05 23:24 | 39.90009 | -104.69584 | 7197 ft | 193 kts | 4° |
| 2026-05-05 23:24 | 39.91413 | -104.69759 | 7583 ft | 218 kts | 343° |
| 2026-05-05 23:24 | 39.92696 | -104.70977 | 7781 ft | 246 kts | 306° |
| 2026-05-05 23:25 | 39.93268 | -104.73180 | 7996 ft | 273 kts | 274° |
| 2026-05-05 23:25 | 39.93283 | -104.75694 | 8730 ft | 278 kts | 267° |
| 2026-05-05 23:25 | 39.93204 | -104.78220 | 9588 ft | 282 kts | 267° |
| 2026-05-05 23:25 | 39.93153 | -104.80776 | 9965 ft | 283 kts | 268° |
| 2026-05-05 23:26 | 39.93144 | -104.83362 | 9999 ft | 288 kts | 269° |
| 2026-05-05 23:26 | 39.93162 | -104.85956 | 10005 ft | 285 kts | 269° |
| 2026-05-05 23:26 | 39.93188 | -104.88522 | 10013 ft | 282 kts | 270° |
| 2026-05-05 23:26 | 39.93220 | -104.91068 | 10034 ft | 281 kts | 270° |
| 2026-05-05 23:27 | 39.93275 | -104.93662 | 10109 ft | 297 kts | 271° |
| 2026-05-05 23:27 | 39.93343 | -104.96453 | 10297 ft | 320 kts | 271° |
| 2026-05-05 23:27 | 39.93416 | -104.99422 | 10753 ft | 332 kts | 271° |
| 2026-05-05 23:27 | 39.93488 | -105.02397 | 11588 ft | 332 kts | 271° |
| 2026-05-05 23:28 | 39.93558 | -105.05401 | 12508 ft | 332 kts | 271° |
| 2026-05-05 23:28 | 39.93627 | -105.08397 | 13438 ft | 332 kts | 271° |
| 2026-05-05 23:28 | 39.93696 | -105.11426 | 14220 ft | 337 kts | 271° |
| 2026-05-05 23:28 | 39.93764 | -105.14485 | 15001 ft | 338 kts | 271° |
| 2026-05-05 23:29 | 39.93831 | -105.17564 | 15826 ft | 340 kts | 271° |
| 2026-05-05 23:29 | 39.93898 | -105.20650 | 16673 ft | 341 kts | 271° |
| 2026-05-05 23:29 | 39.94004 | -105.23748 | 17501 ft | 343 kts | 274° |
| 2026-05-05 23:29 | 39.94240 | -105.26856 | 18308 ft | 346 kts | 275° |
| 2026-05-05 23:30 | 39.94517 | -105.29987 | 18932 ft | 350 kts | 275° |
| 2026-05-05 23:30 | 39.94787 | -105.33153 | 19594 ft | 353 kts | 275° |
| 2026-05-05 23:30 | 39.95044 | -105.36341 | 20280 ft | 355 kts | 275° |
| 2026-05-05 23:30 | 39.95295 | -105.39551 | 20915 ft | 358 kts | 275° |
| 2026-05-05 23:31 | 39.95548 | -105.42791 | 21523 ft | 361 kts | 275° |
| 2026-05-05 23:31 | 39.95804 | -105.46061 | 22126 ft | 365 kts | 275° |
| 2026-05-05 23:31 | 39.96063 | -105.49362 | 22743 ft | 368 kts | 275° |
| 2026-05-05 23:31 | 39.96322 | -105.52691 | 23348 ft | 370 kts | 275° |
| 2026-05-05 23:32 | 39.96582 | -105.56045 | 23857 ft | 373 kts | 275° |
| 2026-05-05 23:32 | 39.96841 | -105.59424 | 24337 ft | 375 kts | 275° |
| 2026-05-05 23:32 | 39.97099 | -105.62814 | 24871 ft | 377 kts | 275° |
| 2026-05-05 23:32 | 39.97357 | -105.66222 | 25414 ft | 378 kts | 275° |
| 2026-05-05 23:33 | 39.97570 | -105.69643 | 25896 ft | 380 kts | 274° |
| 2026-05-05 23:33 | 39.97743 | -105.73049 | 26390 ft | 383 kts | 273° |
| 2026-05-05 23:33 | 39.97907 | -105.76525 | 26896 ft | 385 kts | 273° |
| 2026-05-05 23:33 | 39.98070 | -105.80028 | 27366 ft | 388 kts | 273° |
| 2026-05-05 23:34 | 39.98236 | -105.83544 | 27816 ft | 390 kts | 273° |
| 2026-05-05 23:34 | 39.98406 | -105.87089 | 28256 ft | 393 kts | 273° |
| 2026-05-05 23:34 | 39.98579 | -105.90653 | 28686 ft | 395 kts | 273° |
| 2026-05-05 23:34 | 39.98753 | -105.94244 | 29093 ft | 398 kts | 273° |
| 2026-05-05 23:35 | 39.98929 | -105.97859 | 29493 ft | 400 kts | 273° |
| 2026-05-05 23:35 | 39.99105 | -106.01491 | 29873 ft | 403 kts | 273° |
| 2026-05-05 23:35 | 39.99280 | -106.05146 | 30203 ft | 405 kts | 273° |
| 2026-05-05 23:35 | 39.99455 | -106.08816 | 30554 ft | 406 kts | 273° |
| 2026-05-05 23:36 | 39.99630 | -106.12488 | 30920 ft | 406 kts | 273° |
| 2026-05-05 23:36 | 39.99803 | -106.16169 | 31257 ft | 407 kts | 273° |
| 2026-05-05 23:36 | 39.99975 | -106.19854 | 31545 ft | 408 kts | 273° |
| 2026-05-05 23:36 | 40.00147 | -106.23549 | 31907 ft | 408 kts | 273° |
| 2026-05-05 23:37 | 40.00316 | -106.27219 | 32437 ft | 403 kts | 273° |
| 2026-05-05 23:37 | 40.00482 | -106.30843 | 32997 ft | 398 kts | 273° |
| 2026-05-05 23:37 | 40.00646 | -106.34429 | 33429 ft | 396 kts | 273° |
| 2026-05-05 23:37 | 40.00808 | -106.38008 | 33759 ft | 395 kts | 273° |
| 2026-05-05 23:38 | 40.01117 | -106.44912 | 33763 ft | 378 kts | 273° |
| 2026-05-05 23:38 | 40.01426 | -106.51950 | 33763 ft | 393 kts | 273° |
| 2026-05-05 23:39 | 40.01736 | -106.59163 | 33771 ft | 401 kts | 273° |
| 2026-05-05 23:39 | 40.02046 | -106.66426 | 33769 ft | 402 kts | 273° |
| 2026-05-05 23:40 | 40.02352 | -106.73711 | 33784 ft | 402 kts | 273° |
| 2026-05-05 23:40 | 40.02655 | -106.81015 | 33776 ft | 403 kts | 273° |
| 2026-05-05 23:41 | 40.02952 | -106.88316 | 33788 ft | 403 kts | 273° |
| 2026-05-05 23:41 | 40.03245 | -106.95614 | 33791 ft | 403 kts | 273° |
| 2026-05-05 23:42 | 40.03533 | -107.02900 | 33808 ft | 402 kts | 273° |
| 2026-05-05 23:42 | 40.03817 | -107.10201 | 33819 ft | 403 kts | 274° |
| 2026-05-05 23:43 | 40.04097 | -107.17521 | 33830 ft | 404 kts | 274° |
| 2026-05-05 23:43 | 40.04374 | -107.24866 | 33847 ft | 406 kts | 274° |
| 2026-05-05 23:44 | 40.04647 | -107.32255 | 33851 ft | 409 kts | 274° |
| 2026-05-05 23:44 | 40.04916 | -107.39678 | 33863 ft | 411 kts | 274° |
| 2026-05-05 23:45 | 40.05182 | -107.47106 | 33872 ft | 414 kts | 275° |
| 2026-05-05 23:45 | 40.05445 | -107.54615 | 33888 ft | 415 kts | 275° |
| 2026-05-05 23:46 | 40.05704 | -107.62156 | 33908 ft | 417 kts | 275° |
| 2026-05-05 23:46 | 40.05960 | -107.69729 | 33920 ft | 418 kts | 275° |
| 2026-05-05 23:47 | 40.06211 | -107.77321 | 33936 ft | 419 kts | 275° |
| 2026-05-05 23:47 | 40.06459 | -107.84930 | 33930 ft | 420 kts | 275° |
| 2026-05-05 23:48 | 40.06702 | -107.92543 | 33941 ft | 420 kts | 276° |
| 2026-05-05 23:48 | 40.07023 | -108.00167 | 33935 ft | 421 kts | 277° |
| 2026-05-05 23:49 | 40.07391 | -108.07784 | 33908 ft | 421 kts | 277° |
| 2026-05-05 23:49 | 40.07749 | -108.15417 | 33884 ft | 422 kts | 277° |
| 2026-05-05 23:50 | 40.08094 | -108.23066 | 33867 ft | 423 kts | 277° |
| 2026-05-05 23:50 | 40.08432 | -108.30747 | 33830 ft | 424 kts | 277° |
| 2026-05-05 23:51 | 40.08765 | -108.38450 | 33815 ft | 426 kts | 277° |
| 2026-05-05 23:51 | 40.09095 | -108.46190 | 33837 ft | 431 kts | 278° |
| 2026-05-05 23:52 | 40.09430 | -108.54056 | 33814 ft | 442 kts | 278° |
| 2026-05-05 23:52 | 40.09759 | -108.62087 | 33791 ft | 443 kts | 278° |
| 2026-05-05 23:53 | 40.09922 | -108.66104 | 33499 ft | 442 kts | 278° |
| 2026-05-05 23:53 | 40.10081 | -108.70096 | 33226 ft | 440 kts | 278° |
| 2026-05-05 23:53 | 40.10241 | -108.74096 | 32958 ft | 442 kts | 278° |
| 2026-05-05 23:53 | 40.10402 | -108.78114 | 32692 ft | 444 kts | 278° |
| 2026-05-05 23:54 | 40.10562 | -108.82141 | 32427 ft | 445 kts | 278° |
| 2026-05-05 23:54 | 40.10720 | -108.86197 | 32165 ft | 446 kts | 278° |
| 2026-05-05 23:54 | 40.10876 | -108.90244 | 31909 ft | 447 kts | 278° |
| 2026-05-05 23:54 | 40.11030 | -108.94290 | 31817 ft | 446 kts | 278° |
| 2026-05-05 23:55 | 40.11332 | -109.02391 | 31786 ft | 446 kts | 278° |
| 2026-05-05 23:55 | 40.11631 | -109.10497 | 31775 ft | 447 kts | 278° |
| 2026-05-05 23:56 | 40.11924 | -109.18618 | 31776 ft | 448 kts | 278° |
| 2026-05-05 23:56 | 40.12212 | -109.26751 | 31778 ft | 448 kts | 278° |
| 2026-05-05 23:57 | 40.12493 | -109.34837 | 31782 ft | 449 kts | 278° |
| 2026-05-05 23:57 | 40.12770 | -109.42986 | 31798 ft | 449 kts | 277° |
| 2026-05-05 23:58 | 40.13044 | -109.51202 | 31801 ft | 450 kts | 277° |
| 2026-05-05 23:58 | 40.13309 | -109.59306 | 31801 ft | 450 kts | 277° |
| 2026-05-05 23:59 | 40.13570 | -109.67482 | 31798 ft | 450 kts | 277° |
| 2026-05-05 23:59 | 40.13825 | -109.75658 | 31786 ft | 451 kts | 277° |
| 2026-05-06 00:00 | 40.14074 | -109.83846 | 31784 ft | 451 kts | 278° |
| 2026-05-06 00:00 | 40.14318 | -109.92030 | 31792 ft | 451 kts | 277° |
| 2026-05-06 00:01 | 40.14557 | -110.00223 | 31806 ft | 451 kts | 277° |
| 2026-05-06 00:01 | 40.14789 | -110.08359 | 31789 ft | 451 kts | 277° |
| 2026-05-06 00:02 | 40.14966 | -110.16563 | 31809 ft | 453 kts | 276° |
| 2026-05-06 00:02 | 40.14890 | -110.24809 | 31588 ft | 456 kts | 274° |
| 2026-05-06 00:03 | 40.14828 | -110.28921 | 31190 ft | 449 kts | 275° |
| 2026-05-06 00:03 | 40.14767 | -110.32971 | 30736 ft | 442 kts | 275° |
| 2026-05-06 00:03 | 40.14715 | -110.36964 | 30240 ft | 437 kts | 275° |
| 2026-05-06 00:03 | 40.14670 | -110.40918 | 29727 ft | 433 kts | 275° |
| 2026-05-06 00:04 | 40.14630 | -110.44837 | 29143 ft | 429 kts | 275° |
| 2026-05-06 00:04 | 40.14592 | -110.48709 | 28634 ft | 424 kts | 275° |
| 2026-05-06 00:04 | 40.14554 | -110.52532 | 28125 ft | 419 kts | 274° |
| 2026-05-06 00:04 | 40.14515 | -110.56320 | 27613 ft | 414 kts | 274° |
| 2026-05-06 00:05 | 40.14435 | -110.63730 | 26611 ft | 406 kts | 274° |
| 2026-05-06 00:05 | 40.14394 | -110.67405 | 26121 ft | 402 kts | 273° |
| 2026-05-06 00:05 | 40.14351 | -110.71096 | 25621 ft | 399 kts | 273° |
| 2026-05-06 00:06 | 40.14308 | -110.74646 | 25151 ft | 395 kts | 272° |
| 2026-05-06 00:06 | 40.14265 | -110.78217 | 24673 ft | 391 kts | 272° |
| 2026-05-06 00:06 | 40.14219 | -110.81755 | 24198 ft | 387 kts | 272° |
| 2026-05-06 00:06 | 40.14174 | -110.85256 | 23742 ft | 384 kts | 271° |
| 2026-05-06 00:07 | 40.14128 | -110.88730 | 23242 ft | 381 kts | 271° |
| 2026-05-06 00:07 | 40.14080 | -110.92180 | 22696 ft | 378 kts | 271° |
| 2026-05-06 00:07 | 40.14032 | -110.95596 | 22227 ft | 373 kts | 271° |
| 2026-05-06 00:07 | 40.13984 | -110.98972 | 21745 ft | 370 kts | 271° |
| 2026-05-06 00:08 | 40.13936 | -111.02314 | 21293 ft | 366 kts | 271° |
| 2026-05-06 00:08 | 40.13887 | -111.05626 | 20824 ft | 363 kts | 271° |
| 2026-05-06 00:08 | 40.13838 | -111.08905 | 20378 ft | 360 kts | 272° |
| 2026-05-06 00:08 | 40.13788 | -111.12166 | 19926 ft | 357 kts | 272° |
| 2026-05-06 00:09 | 40.13738 | -111.15400 | 19476 ft | 355 kts | 271° |
| 2026-05-06 00:09 | 40.13687 | -111.18610 | 19033 ft | 353 kts | 271° |
| 2026-05-06 00:09 | 40.13635 | -111.21804 | 18594 ft | 351 kts | 271° |
| 2026-05-06 00:09 | 40.13582 | -111.24983 | 18170 ft | 349 kts | 271° |
| 2026-05-06 00:10 | 40.13528 | -111.28139 | 17677 ft | 347 kts | 271° |
| 2026-05-06 00:10 | 40.13474 | -111.31285 | 17204 ft | 345 kts | 271° |
| 2026-05-06 00:10 | 40.13418 | -111.34392 | 16857 ft | 339 kts | 271° |
| 2026-05-06 00:10 | 40.13364 | -111.37467 | 16432 ft | 337 kts | 271° |
| 2026-05-06 00:11 | 40.13310 | -111.40516 | 16003 ft | 335 kts | 271° |
| 2026-05-06 00:11 | 40.13256 | -111.43559 | 15563 ft | 334 kts | 272° |
| 2026-05-06 00:11 | 40.13201 | -111.46554 | 15399 ft | 325 kts | 271° |
| 2026-05-06 00:11 | 40.13164 | -111.48494 | 15295 ft | 319 kts | 271° |
| 2026-05-06 00:12 | 40.13109 | -111.51337 | 15176 ft | 309 kts | 271° |
| 2026-05-06 00:12 | 40.13087 | -111.54113 | 15045 ft | 300 kts | 277° |
| 2026-05-06 00:12 | 40.13870 | -111.57472 | 14812 ft | 290 kts | 296° |
| 2026-05-06 00:12 | 40.14703 | -111.59877 | 14650 ft | 293 kts | 297° |
| 2026-05-06 00:13 | 40.15550 | -111.62327 | 14480 ft | 299 kts | 296° |
| 2026-05-06 00:13 | 40.16124 | -111.64009 | 14363 ft | 301 kts | 296° |
| 2026-05-06 00:13 | 40.16983 | -111.66500 | 14168 ft | 299 kts | 300° |
| 2026-05-06 00:13 | 40.18234 | -111.68624 | 13984 ft | 294 kts | 317° |
| 2026-05-06 00:14 | 40.19734 | -111.70423 | 13810 ft | 292 kts | 319° |
| 2026-05-06 00:14 | 40.21247 | -111.72197 | 13620 ft | 291 kts | 319° |
| 2026-05-06 00:14 | 40.22755 | -111.73966 | 13423 ft | 291 kts | 319° |
| 2026-05-06 00:14 | 40.24235 | -111.75712 | 13237 ft | 290 kts | 319° |
| 2026-05-06 00:15 | 40.25726 | -111.77482 | 13059 ft | 289 kts | 319° |
| 2026-05-06 00:15 | 40.27210 | -111.79249 | 12876 ft | 288 kts | 319° |
| 2026-05-06 00:15 | 40.28686 | -111.81013 | 12703 ft | 287 kts | 319° |
| 2026-05-06 00:15 | 40.30161 | -111.82778 | 12521 ft | 287 kts | 319° |
| 2026-05-06 00:16 | 40.31632 | -111.84541 | 12329 ft | 284 kts | 319° |
| 2026-05-06 00:16 | 40.33069 | -111.86263 | 12145 ft | 277 kts | 319° |
| 2026-05-06 00:16 | 40.34466 | -111.87938 | 12022 ft | 267 kts | 320° |
| 2026-05-06 00:16 | 40.36044 | -111.89171 | 11694 ft | 265 kts | 342° |
| 2026-05-06 00:17 | 40.37810 | -111.89792 | 11418 ft | 263 kts | 346° |
| 2026-05-06 00:17 | 40.39591 | -111.90337 | 11121 ft | 262 kts | 346° |
| 2026-05-06 00:17 | 40.41360 | -111.90873 | 10830 ft | 261 kts | 346° |
| 2026-05-06 00:17 | 40.43124 | -111.91413 | 10538 ft | 259 kts | 346° |
| 2026-05-06 00:18 | 40.44877 | -111.91957 | 10250 ft | 258 kts | 345° |
| 2026-05-06 00:18 | 40.46617 | -111.92502 | 9971 ft | 257 kts | 345° |
| 2026-05-06 00:18 | 40.48355 | -111.93050 | 9680 ft | 256 kts | 345° |
| 2026-05-06 00:18 | 40.50085 | -111.93597 | 9379 ft | 255 kts | 345° |
| 2026-05-06 00:19 | 40.51790 | -111.94137 | 9095 ft | 255 kts | 345° |
| 2026-05-06 00:19 | 40.53526 | -111.94623 | 8776 ft | 256 kts | 351° |
| 2026-05-06 00:19 | 40.55298 | -111.94856 | 8454 ft | 256 kts | 354° |
| 2026-05-06 00:19 | 40.57056 | -111.95023 | 8117 ft | 250 kts | 354° |
| 2026-05-06 00:20 | 40.58766 | -111.95187 | 7824 ft | 241 kts | 354° |
| 2026-05-06 00:20 | 40.60395 | -111.95355 | 7509 ft | 229 kts | 354° |
| 2026-05-06 00:20 | 40.61953 | -111.95525 | 7203 ft | 218 kts | 353° |
| 2026-05-06 00:20 | 40.63414 | -111.95689 | 6916 ft | 203 kts | 354° |
| 2026-05-06 00:21 | 40.64782 | -111.95845 | 6658 ft | 191 kts | 354° |
| 2026-05-06 00:21 | 40.66064 | -111.95993 | 6421 ft | 181 kts | 354° |
| 2026-05-06 00:21 | 40.67302 | -111.96136 | 6214 ft | 175 kts | 355° |
| 2026-05-06 00:21 | 40.68470 | -111.96272 | 6087 ft | 169 kts | 355° |
| 2026-05-06 00:22 | 40.69639 | -111.96409 | 5848 ft | 166 kts | 355° |
| 2026-05-06 00:22 | 40.70779 | -111.96541 | 5628 ft | 162 kts | 355° |
| 2026-05-06 00:22 | 40.71889 | -111.96669 | 5416 ft | 158 kts | 355° |
| 2026-05-06 00:22 | 40.72980 | -111.96795 | 5211 ft | 158 kts | 354° |
| 2026-05-06 00:23 | 40.74060 | -111.96924 | 4985 ft | 157 kts | 355° |
| 2026-05-06 00:23 | 40.75156 | -111.97044 | 4756 ft | 159 kts | 355° |
| 2026-05-06 00:23 | 40.76271 | -111.97182 | 4519 ft | 164 kts | 355° |
| 2026-05-06 00:23 | 40.77422 | -111.97310 | 4270 ft | 167 kts | 356° |
| 2026-05-06 00:24 | 40.78499 | -111.97437 | 4234 ft | 132 kts | 355° |
| 2026-05-06 00:24 | 40.79199 | -111.97513 | 4236 ft | 70 kts | 355° |
| 2026-05-06 00:24 | 40.79463 | -111.97601 | 4232 ft | 13 kts | 329° |
| 2026-05-06 00:24 | 40.79543 | -111.97661 | 4230 ft | 12 kts | 319° |
| 2026-05-06 00:25 | 40.79542 | -111.97733 | 4230 ft | 8 kts | 231° |
| 2026-05-06 00:25 | 40.79490 | -111.97758 | 4230 ft | 9 kts | 188° |
| 2026-05-06 00:25 | 40.79410 | -111.97755 | 4232 ft | 13 kts | 175° |
| 2026-05-06 00:25 | 40.79318 | -111.97746 | 4233 ft | 13 kts | 175° |
| 2026-05-06 00:26 | 40.79218 | -111.97735 | 4234 ft | 17 kts | 175° |
| 2026-05-06 00:26 | 40.79101 | -111.97722 | 4236 ft | 17 kts | 174° |
| 2026-05-06 00:26 | 40.78989 | -111.97706 | 4240 ft | 16 kts | 174° |
| 2026-05-06 00:26 | 40.78880 | -111.97694 | 4238 ft | 15 kts | 178° |
| 2026-05-06 00:27 | 40.78816 | -111.97703 | 4236 ft | 5 kts | 212° |
| 2026-05-06 00:27 | 40.78806 | -111.97746 | 4237 ft | 7 kts | 270° |
| 2026-05-06 00:27 | 40.78805 | -111.97829 | 4237 ft | 10 kts | 267° |
| 2026-05-06 00:27 | 40.78802 | -111.97933 | 4237 ft | 14 kts | 268° |
| 2026-05-06 00:28 | 40.78796 | -111.98082 | 4234 ft | 19 kts | 267° |
| 2026-05-06 00:28 | 40.78789 | -111.98257 | 4232 ft | 19 kts | 267° |
| 2026-05-06 00:28 | 40.78782 | -111.98431 | 4234 ft | 19 kts | 266° |
| 2026-05-06 00:28 | 40.78775 | -111.98598 | 4230 ft | 18 kts | 266° |
| 2026-05-06 00:29 | 40.78767 | -111.98760 | 4230 ft | 17 kts | 266° |
| 2026-05-06 00:29 | 40.78770 | -111.98882 | 4233 ft | 4 kts | 320° |
| 2026-05-06 00:29 | 40.78800 | -111.98885 | 4230 ft | 5 kts | 357° |
| 2026-05-06 00:29 | 40.78819 | -111.98886 | 4232 ft | 0 kts | 358° |